Alpine Village, Colorado
Current Conditions -  °F | °C
As of 9:54 PM on Friday 24 Oct 2014 (Local Time) from K7BM Reporting Station
Clear Clear  
Wind Chill: 11°   Ceiling: Unl
Heat Index: 11°   Visibility: 10mi
Dew Point: -15°   Wind: 6mph
Humidity: 15%   Direction: 290°WNW
Pressure: 30.54"   Gusts: NA
Location:  38.7194°N, 106.276°W
Report Text: K7BM 250354Z AUTO 29005KT 10SM CLR 11/M15 A3054 RMK AO2
Loading
Personal Weather Stations






























Interactive Weather Map New forecast layout! Learn more

10-Day Weather Forecast

Advertisements
Track Severe Weather on mobile